createdAt,value
2019-03-20T00:01:19.318Z,102.78
2019-03-20T00:03:50.575Z,101.67
2019-03-20T00:06:21.560Z,102.07
2019-03-20T00:08:52.586Z,95.47
2019-03-20T00:11:25.101Z,104.50
2019-03-20T00:13:56.208Z,115.80
2019-03-20T00:16:27.326Z,118.30
2019-03-20T00:18:59.887Z,109.70
2019-03-20T00:21:31.043Z,115.67
2019-03-20T00:24:02.325Z,126.50
2019-03-20T00:26:33.330Z,124.80
2019-03-20T00:29:04.353Z,117.03
2019-03-20T00:31:35.333Z,114.80
2019-03-20T00:34:06.519Z,119.65
2019-03-20T00:36:37.609Z,113.88
2019-03-20T00:39:08.704Z,112.37
2019-03-20T00:41:39.707Z,111.10
2019-03-20T00:44:10.753Z,94.90
2019-03-20T00:46:41.700Z,111.88
2019-03-20T00:49:12.808Z,114.52
2019-03-20T00:51:43.910Z,115.42
2019-03-20T00:54:15.121Z,111.68
2019-03-20T00:56:46.944Z,119.02
2019-03-20T00:59:18.049Z,117.50
2019-03-20T01:01:49.160Z,108.90
2019-03-20T01:04:20.181Z,106.97
2019-03-20T01:06:54.373Z,103.72
2019-03-20T01:09:25.318Z,101.87
2019-03-20T01:11:56.412Z,113.85
2019-03-20T01:14:27.580Z,102.92
2019-03-20T01:16:58.544Z,94.97
2019-03-20T01:19:29.496Z,95.20
2019-03-20T01:22:00.493Z,98.58
2019-03-20T01:24:31.434Z,91.67
2019-03-20T01:27:02.568Z,84.70
2019-03-20T01:29:33.609Z,71.82
2019-03-20T01:32:04.595Z,80.85
2019-03-20T01:34:35.583Z,79.70
2019-03-20T01:37:06.893Z,75.95
2019-03-20T01:39:37.935Z,80.92
2019-03-20T01:42:09.940Z,74.58
2019-03-20T01:44:40.945Z,85.07
2019-03-20T01:47:11.928Z,83.72
2019-03-20T01:49:42.881Z,89.60
2019-03-20T01:52:13.887Z,89.35
2019-03-20T01:54:44.805Z,92.15
2019-03-20T01:57:15.938Z,88.12
2019-03-20T01:59:46.896Z,85.50
2019-03-20T02:02:17.809Z,105.50
2019-03-20T02:04:48.831Z,99.70
2019-03-20T02:07:19.747Z,110.42
2019-03-20T02:09:50.713Z,117.95
2019-03-20T02:12:21.624Z,79.40
2019-03-20T02:14:52.653Z,71.37
2019-03-20T02:17:23.581Z,81.87
2019-03-20T02:19:54.661Z,75.30
2019-03-20T02:22:25.711Z,82.65
2019-03-20T02:24:56.673Z,72.37
2019-03-20T02:27:27.689Z,71.40
2019-03-20T02:29:58.704Z,70.70
2019-03-20T02:32:29.683Z,76.12
2019-03-20T02:35:00.783Z,83.67
2019-03-20T02:37:32.945Z,81.72
2019-03-20T02:40:06.092Z,82.40
2019-03-20T02:42:38.480Z,75.28
2019-03-20T02:45:12.770Z,78.00
2019-03-20T02:47:43.671Z,86.22
2019-03-20T02:50:15.686Z,80.45
2019-03-20T02:52:46.572Z,85.40
2019-03-20T02:55:17.615Z,71.85
2019-03-20T02:57:49.437Z,74.05
2019-03-20T03:00:21.109Z,79.67
2019-03-20T03:02:52.191Z,81.70
2019-03-20T03:05:23.353Z,77.50
2019-03-20T03:07:54.527Z,84.50
2019-03-20T03:10:25.546Z,86.42
2019-03-20T03:12:56.476Z,83.80
2019-03-20T03:15:27.525Z,77.15
2019-03-20T03:17:58.476Z,75.60
2019-03-20T03:20:29.414Z,71.15
2019-03-20T03:23:00.418Z,76.10
2019-03-20T03:25:31.382Z,62.95
2019-03-20T03:28:02.348Z,66.87
2019-03-20T03:30:33.312Z,70.28
2019-03-20T03:33:04.230Z,67.37
2019-03-20T03:35:35.264Z,65.17
2019-03-20T03:38:06.179Z,66.00
2019-03-20T03:40:38.200Z,64.55
2019-03-20T03:43:09.262Z,64.97
2019-03-20T03:45:40.320Z,59.18
2019-03-20T03:48:11.293Z,63.68
2019-03-20T03:50:42.483Z,53.10
2019-03-20T03:53:13.476Z,55.50
2019-03-20T03:55:44.484Z,56.75
2019-03-20T03:58:16.208Z,57.03
2019-03-20T04:00:47.149Z,53.05
2019-03-20T04:03:18.042Z,63.30
2019-03-20T04:05:49.030Z,60.67
2019-03-20T04:08:20.100Z,54.55
2019-03-20T04:10:52.135Z,60.40
2019-03-20T04:13:23.128Z,53.92
2019-03-20T04:15:54.222Z,56.60
2019-03-20T04:18:25.140Z,53.10
2019-03-20T04:20:56.263Z,54.38
2019-03-20T04:23:27.263Z,53.78
2019-03-20T04:25:58.254Z,57.08
2019-03-20T04:28:31.414Z,58.30
2019-03-20T04:31:02.417Z,53.85
2019-03-20T04:33:33.422Z,55.15
2019-03-20T04:36:04.368Z,58.17
2019-03-20T04:38:35.302Z,61.48
2019-03-20T04:41:06.246Z,58.08
2019-03-20T04:43:37.177Z,54.23
2019-03-20T04:46:08.150Z,45.25
2019-03-20T04:48:39.110Z,46.80
2019-03-20T04:51:10.065Z,45.25
2019-03-20T04:53:41.351Z,42.67
2019-03-20T04:56:12.350Z,36.35
2019-03-20T04:58:44.192Z,47.58
2019-03-20T05:01:15.248Z,45.67
2019-03-20T05:03:47.232Z,39.85
2019-03-20T05:06:18.262Z,39.30
2019-03-20T05:08:49.356Z,34.78
2019-03-20T05:11:20.457Z,38.42
2019-03-20T05:13:51.387Z,38.83
2019-03-20T05:16:22.443Z,38.05
2019-03-20T05:18:53.487Z,36.75
2019-03-20T05:21:24.535Z,33.48
2019-03-20T05:23:55.545Z,36.93
2019-03-20T05:26:26.523Z,38.65
2019-03-20T05:28:57.617Z,32.80
2019-03-20T05:31:29.051Z,27.50
2019-03-20T05:34:00.086Z,34.10
2019-03-20T05:36:31.146Z,31.52
2019-03-20T05:39:02.280Z,30.68
2019-03-20T05:41:34.345Z,27.58
2019-03-20T05:44:05.228Z,28.30
2019-03-20T05:46:36.278Z,20.32
2019-03-20T05:49:07.458Z,23.45
2019-03-20T05:51:43.177Z,17.23
2019-03-20T05:54:17.619Z,36.70
2019-03-20T05:56:48.744Z,17.85
2019-03-20T05:59:20.602Z,23.02
2019-03-20T06:01:51.780Z,15.98
2019-03-20T06:04:22.699Z,12.35
2019-03-20T06:06:53.833Z,18.73
2019-03-20T06:09:24.697Z,13.88
2019-03-20T06:11:55.632Z,14.65
2019-03-20T06:14:26.520Z,34.33
2019-03-20T06:16:57.560Z,14.30
2019-03-20T06:19:28.520Z,18.30
2019-03-20T06:21:59.459Z,13.93
2019-03-20T06:24:30.354Z,13.18
2019-03-20T06:27:01.504Z,14.47
2019-03-20T06:29:32.422Z,10.95
2019-03-20T06:32:03.362Z,12.55
2019-03-20T06:34:34.224Z,201.07
2019-03-20T06:37:06.339Z,20.60
2019-03-20T06:39:37.520Z,113.05
2019-03-20T06:42:09.407Z,45.28
2019-03-20T06:44:40.467Z,26.77
2019-03-20T06:47:11.571Z,25.52
2019-03-20T06:49:42.704Z,14.18
2019-03-20T06:52:13.613Z,12.37
2019-03-20T06:55:01.082Z,13.78
2019-03-20T06:57:32.067Z,21.17
2019-03-20T07:00:38.918Z,17.87
2019-03-20T07:03:22.071Z,12.25
2019-03-20T07:06:12.415Z,9.68
2019-03-20T07:09:15.400Z,12.73
2019-03-20T07:11:46.292Z,9.98
2019-03-20T07:14:17.251Z,42.53
2019-03-20T07:16:48.296Z,165.25
2019-03-20T07:19:19.386Z,369.57
2019-03-20T07:21:50.395Z,58.23
2019-03-20T07:24:21.483Z,236.10
2019-03-20T07:26:52.778Z,255.65
2019-03-20T07:29:23.847Z,37.50
2019-03-20T07:31:54.765Z,12.78
2019-03-20T07:34:25.769Z,9.25
2019-03-20T07:36:56.653Z,7.75
2019-03-20T07:39:27.608Z,8.53
2019-03-20T07:41:58.445Z,10.43
2019-03-20T07:44:29.401Z,10.95
2019-03-20T07:47:00.541Z,10.95
2019-03-20T07:49:31.521Z,5.80
2019-03-20T07:52:02.639Z,8.28
2019-03-20T07:54:33.654Z,7.10
2019-03-20T07:57:04.638Z,9.55
2019-03-20T07:59:36.582Z,11.40
2019-03-20T08:02:08.248Z,9.70
2019-03-20T08:04:39.383Z,4.87
2019-03-20T08:07:10.312Z,8.35
2019-03-20T08:09:41.336Z,7.12
2019-03-20T08:12:12.133Z,6.28
2019-03-20T08:14:42.980Z,7.83
2019-03-20T08:17:13.970Z,7.92
2019-03-20T08:19:45.130Z,9.78
2019-03-20T08:22:16.015Z,7.12
2019-03-20T08:24:46.919Z,11.10
2019-03-20T08:27:17.947Z,8.93
2019-03-20T08:29:48.965Z,9.58
2019-03-20T08:32:19.780Z,8.00
2019-03-20T08:34:52.285Z,8.15
2019-03-20T08:37:23.262Z,7.23
2019-03-20T08:39:54.141Z,6.97
2019-03-20T08:42:25.093Z,7.70
2019-03-20T08:44:55.937Z,8.93
2019-03-20T08:47:26.772Z,8.80
2019-03-20T08:49:57.668Z,9.98
2019-03-20T08:52:28.562Z,11.45
2019-03-20T08:54:59.484Z,9.70
2019-03-20T08:57:30.394Z,8.40
2019-03-20T09:00:01.328Z,8.35
2019-03-20T09:02:33.264Z,10.35
2019-03-20T09:05:07.351Z,11.30
2019-03-20T09:07:46.847Z,9.43
2019-03-20T09:10:14.412Z,11.53
2019-03-20T09:12:45.424Z,10.28
2019-03-20T09:15:17.419Z,10.23
2019-03-20T09:17:48.424Z,10.20
2019-03-20T09:20:24.397Z,9.53
2019-03-20T09:22:55.296Z,108.22
2019-03-20T09:25:26.803Z,179.10
2019-03-20T09:27:57.879Z,19.40
2019-03-20T09:30:30.286Z,33.78
2019-03-20T09:33:01.369Z,19.73
2019-03-20T09:35:32.597Z,20.70
2019-03-20T09:38:03.713Z,12.78
2019-03-20T09:40:34.857Z,13.30
2019-03-20T09:43:05.891Z,14.50
2019-03-20T09:45:37.101Z,41.20
2019-03-20T09:48:08.238Z,12.98
2019-03-20T09:50:39.202Z,16.00
2019-03-20T09:53:10.033Z,13.98
2019-03-20T09:55:43.324Z,13.15
2019-03-20T09:58:15.899Z,13.35
2019-03-20T10:00:47.185Z,16.55
2019-03-20T10:03:19.046Z,17.45
2019-03-20T10:05:50.182Z,17.65
2019-03-20T10:08:24.610Z,18.48
2019-03-20T10:11:05.731Z,13.40
2019-03-20T10:13:37.613Z,14.70
2019-03-20T10:16:12.092Z,11.20
2019-03-20T10:21:16.645Z,13.03
2019-03-20T10:23:52.285Z,10.05
2019-03-20T10:26:23.672Z,11.68
2019-03-20T10:28:54.898Z,8.75
2019-03-20T10:31:25.796Z,12.37
2019-03-20T10:33:57.015Z,8.20
2019-03-20T10:36:30.635Z,7.65
2019-03-20T10:39:06.989Z,8.83
2019-03-20T10:41:40.124Z,6.53
2019-03-20T10:44:11.062Z,33.67
2019-03-20T10:46:45.284Z,6.65
2019-03-20T10:49:19.419Z,8.00
2019-03-20T10:51:54.305Z,6.78
2019-03-20T10:54:25.318Z,7.83
2019-03-20T10:56:56.297Z,8.00
2019-03-20T10:59:28.810Z,7.55
2019-03-20T11:02:01.390Z,5.83
2019-03-20T11:04:33.267Z,5.45
2019-03-20T11:07:05.263Z,8.48
2019-03-20T11:09:36.313Z,5.95
2019-03-20T11:12:08.358Z,6.00
2019-03-20T11:14:39.378Z,6.62
2019-03-20T11:17:10.372Z,8.45
2019-03-20T11:19:41.218Z,7.65
2019-03-20T11:22:18.796Z,7.85
2019-03-20T11:24:44.815Z,7.87
2019-03-20T11:27:16.208Z,7.05
2019-03-20T11:29:48.941Z,7.60
2019-03-20T11:32:21.496Z,7.05
2019-03-20T11:34:54.174Z,6.70
2019-03-20T11:37:25.138Z,6.42
2019-03-20T11:39:57.817Z,7.10
2019-03-20T11:42:30.247Z,7.97
2019-03-20T11:45:01.171Z,7.12
2019-03-20T11:47:32.272Z,8.88
2019-03-20T11:50:04.107Z,7.45
2019-03-20T11:52:35.220Z,6.05
2019-03-20T11:55:07.848Z,8.03
2019-03-20T11:57:38.970Z,12.85
2019-03-20T12:00:16.242Z,7.15
2019-03-20T12:02:47.314Z,7.42
2019-03-20T12:05:19.121Z,9.33
2019-03-20T12:07:50.149Z,7.45
2019-03-20T12:10:23.340Z,7.37
2019-03-20T12:12:54.341Z,8.48
2019-03-20T12:15:25.250Z,9.55
2019-03-20T12:17:56.244Z,6.50
2019-03-20T12:20:27.360Z,7.70
2019-03-20T12:22:58.606Z,8.53
2019-03-20T12:25:35.849Z,10.68
2019-03-20T12:28:06.794Z,7.40
2019-03-20T12:30:38.741Z,7.78
2019-03-20T12:33:09.685Z,13.53
2019-03-20T12:35:43.054Z,34.10
2019-03-20T12:40:46.242Z,10.38
2019-03-20T12:43:17.177Z,10.05
2019-03-20T12:45:48.201Z,9.20
2019-03-20T12:48:19.349Z,10.43
2019-03-20T12:50:50.272Z,9.45
2019-03-20T12:53:33.040Z,11.05
2019-03-20T12:56:04.013Z,14.28
2019-03-20T12:58:35.059Z,12.88
2019-03-20T13:01:06.236Z,13.50
2019-03-20T13:03:38.995Z,11.15
2019-03-20T13:06:10.889Z,14.20
2019-03-20T13:08:43.574Z,14.30
2019-03-20T13:11:14.516Z,12.47
2019-03-20T13:13:45.612Z,14.93
2019-03-20T13:16:24.078Z,15.65
2019-03-20T13:18:56.841Z,13.20
2019-03-20T13:21:27.896Z,11.85
2019-03-20T13:24:01.135Z,11.65
2019-03-20T13:26:32.124Z,11.95
2019-03-20T13:29:03.148Z,12.05
2019-03-20T13:31:34.150Z,10.38
2019-03-20T13:34:06.780Z,9.13
2019-03-20T13:36:37.945Z,11.93
2019-03-20T13:39:08.998Z,6.72
2019-03-20T13:41:40.012Z,7.12
2019-03-20T13:44:23.991Z,5.67
2019-03-20T13:46:55.053Z,5.40
2019-03-20T13:49:27.569Z,7.17
2019-03-20T13:52:01.761Z,6.92
2019-03-20T13:54:34.489Z,6.97
2019-03-20T13:57:05.363Z,6.83
2019-03-20T13:59:36.668Z,7.15
2019-03-20T14:02:09.663Z,8.18
2019-03-20T14:04:43.367Z,9.00
2019-03-20T14:07:15.038Z,6.30
2019-03-20T14:09:47.138Z,7.10
2019-03-20T14:12:19.810Z,7.72
2019-03-20T14:14:50.980Z,9.55
2019-03-20T14:17:22.098Z,9.38
2019-03-20T14:19:54.350Z,8.23
2019-03-20T14:22:25.475Z,7.25
2019-03-20T14:24:56.429Z,6.35
2019-03-20T14:27:27.451Z,7.80
2019-03-20T14:29:58.409Z,8.48
2019-03-20T14:32:29.371Z,8.53
2019-03-20T14:35:00.392Z,6.97
2019-03-20T14:37:31.443Z,8.70
2019-03-20T14:40:02.432Z,9.08
2019-03-20T14:42:33.668Z,6.95
2019-03-20T14:45:05.954Z,7.30
2019-03-20T14:47:42.135Z,7.60
2019-03-20T14:50:12.707Z,9.18
2019-03-20T14:52:43.612Z,10.93
2019-03-20T14:55:14.903Z,9.40
2019-03-20T14:57:45.951Z,7.12
2019-03-20T15:00:26.100Z,7.65
2019-03-20T15:02:57.186Z,6.65
2019-03-20T15:05:28.285Z,8.75
2019-03-20T15:08:00.191Z,8.63
2019-03-20T15:10:31.099Z,7.42
2019-03-20T15:13:01.957Z,6.05
2019-03-20T15:15:41.904Z,8.75
2019-03-20T15:18:12.727Z,12.00
2019-03-20T15:20:43.748Z,9.95
2019-03-20T15:23:15.289Z,8.95
2019-03-20T15:25:49.037Z,10.28
2019-03-20T15:28:20.145Z,12.60
2019-03-20T15:30:53.128Z,10.38
2019-03-20T15:33:25.652Z,9.78
2019-03-20T15:35:56.688Z,10.03
2019-03-20T15:38:27.751Z,14.93
2019-03-20T15:40:58.744Z,10.45
2019-03-20T15:43:30.678Z,9.35
2019-03-20T15:46:01.720Z,61.25
2019-03-20T15:48:32.881Z,13.93
2019-03-20T15:51:03.783Z,11.20
2019-03-20T15:53:34.729Z,31.55
2019-03-20T15:56:05.759Z,15.72
2019-03-20T15:58:36.568Z,33.18
2019-03-20T16:01:09.685Z,17.77
2019-03-20T16:03:46.018Z,20.52
2019-03-20T16:06:16.999Z,14.73
2019-03-20T16:08:49.802Z,18.20
2019-03-20T16:11:20.820Z,20.15
2019-03-20T16:13:51.782Z,17.07
2019-03-20T16:16:22.720Z,14.35
2019-03-20T16:18:53.594Z,13.08
2019-03-20T16:21:24.465Z,15.63
2019-03-20T16:23:55.336Z,26.20
2019-03-20T16:26:28.726Z,16.65
2019-03-20T16:28:59.855Z,23.20
2019-03-20T16:31:30.974Z,20.23
2019-03-20T16:34:01.876Z,17.45
2019-03-20T16:36:32.822Z,21.97
2019-03-20T16:39:05.628Z,14.65
2019-03-20T16:41:36.505Z,16.52
2019-03-20T16:44:07.443Z,18.92
2019-03-20T16:46:38.429Z,14.85
2019-03-20T16:49:09.383Z,19.90
2019-03-20T16:51:40.283Z,17.20
2019-03-20T16:54:11.286Z,17.85
2019-03-20T16:56:42.219Z,14.58
2019-03-20T16:59:13.110Z,17.25
2019-03-20T17:01:43.974Z,18.17
2019-03-20T17:04:14.926Z,17.25
2019-03-20T17:06:45.947Z,16.70
2019-03-20T17:09:17.566Z,18.30
2019-03-20T17:11:48.403Z,22.05
2019-03-20T17:14:20.364Z,15.88
2019-03-20T17:16:51.466Z,19.52
2019-03-20T17:19:22.356Z,21.23
2019-03-20T17:21:53.312Z,16.00
2019-03-20T17:24:24.185Z,21.52
2019-03-20T17:26:55.150Z,13.35
2019-03-20T17:29:26.103Z,20.32
2019-03-20T17:31:57.195Z,21.35
2019-03-20T17:34:28.227Z,19.27
2019-03-20T17:36:59.364Z,23.52
2019-03-20T17:39:30.531Z,19.52
2019-03-20T17:42:01.811Z,19.05
2019-03-20T17:44:33.001Z,16.40
2019-03-20T17:47:04.050Z,20.52
2019-03-20T17:49:35.704Z,22.07
2019-03-20T17:52:08.157Z,21.95
2019-03-20T17:54:39.259Z,18.77
2019-03-20T17:57:14.407Z,22.73
2019-03-20T17:59:45.865Z,16.62
2019-03-20T18:02:23.878Z,20.80
2019-03-20T18:04:50.107Z,22.45
2019-03-20T18:09:54.460Z,29.27
2019-03-20T18:12:25.621Z,25.92
2019-03-20T18:14:56.714Z,30.77
2019-03-20T18:17:28.083Z,27.17
2019-03-20T18:19:59.382Z,24.98
2019-03-20T18:22:32.375Z,21.15
2019-03-20T18:25:03.386Z,25.15
2019-03-20T18:27:34.450Z,23.85
2019-03-20T18:30:11.426Z,21.62
2019-03-20T18:32:42.744Z,20.50
2019-03-20T18:35:14.381Z,59.48
2019-03-20T18:37:45.612Z,38.13
2019-03-20T18:40:22.756Z,60.35
2019-03-20T18:42:53.950Z,99.87
2019-03-20T18:45:28.269Z,48.13
2019-03-20T18:47:59.543Z,325.48
2019-03-20T18:50:30.789Z,126.72
2019-03-20T18:53:02.438Z,35.15
2019-03-20T18:55:33.987Z,27.40
2019-03-20T18:58:05.577Z,27.52
2019-03-20T19:00:36.855Z,26.17
2019-03-20T19:03:14.405Z,23.25
2019-03-20T19:05:52.106Z,28.70
2019-03-20T19:08:24.007Z,29.10
2019-03-20T19:10:57.066Z,30.35
2019-03-20T19:13:28.561Z,35.35
2019-03-20T19:16:01.370Z,30.43
2019-03-20T19:18:33.067Z,24.95
2019-03-20T19:21:04.691Z,28.60
2019-03-20T19:23:35.782Z,26.27
2019-03-20T19:26:07.851Z,26.95
2019-03-20T19:28:39.133Z,27.60
2019-03-20T19:31:10.544Z,25.85
2019-03-20T19:33:41.620Z,29.15
2019-03-20T19:36:12.676Z,42.03
2019-03-20T19:38:43.690Z,28.35
2019-03-20T19:41:14.868Z,26.85
2019-03-20T19:43:46.145Z,24.90
2019-03-20T19:46:17.056Z,28.90
2019-03-20T19:48:50.614Z,32.50
2019-03-20T19:51:21.627Z,45.58
2019-03-20T19:54:08.790Z,35.23
2019-03-20T19:56:40.630Z,31.60
2019-03-20T19:59:12.483Z,30.62
2019-03-20T20:01:44.510Z,31.55
2019-03-20T20:04:16.454Z,27.10
2019-03-20T20:06:48.957Z,30.05
2019-03-20T20:11:52.968Z,31.25
2019-03-20T20:14:27.116Z,32.35
2019-03-20T20:16:58.474Z,28.57
2019-03-20T20:19:29.696Z,25.48
2019-03-20T20:22:06.119Z,38.67
2019-03-20T20:24:37.210Z,32.30
2019-03-20T20:27:08.464Z,30.20
2019-03-20T20:29:41.397Z,31.40
2019-03-20T20:32:15.221Z,30.02
2019-03-20T20:34:47.635Z,29.52
2019-03-20T20:37:21.999Z,92.62
2019-03-20T20:39:53.487Z,89.85
2019-03-20T20:42:26.092Z,67.20
2019-03-20T20:45:05.557Z,124.13
2019-03-20T20:47:42.094Z,203.67
2019-03-20T20:50:17.838Z,126.30
2019-03-20T20:52:56.647Z,60.43
2019-03-20T20:55:27.589Z,34.90
2019-03-20T20:57:58.515Z,26.95
2019-03-20T21:00:29.758Z,24.35
2019-03-20T21:03:01.168Z,23.27
2019-03-20T21:08:08.882Z,26.05
2019-03-20T21:10:41.415Z,24.60
2019-03-20T21:13:13.231Z,19.87
2019-03-20T21:15:47.897Z,24.47
2019-03-20T21:18:37.190Z,25.85
2019-03-20T21:21:09.343Z,23.83
2019-03-20T21:24:00.412Z,21.17
2019-03-20T21:26:53.909Z,23.15
2019-03-20T21:29:46.586Z,21.55
2019-03-20T21:32:36.715Z,52.90
2019-03-20T21:35:46.006Z,79.75
2019-03-20T21:38:16.165Z,102.22
2019-03-20T21:41:10.893Z,65.45
2019-03-20T21:44:10.781Z,25.97
2019-03-20T21:46:56.960Z,17.07
2019-03-20T21:49:27.890Z,20.10
2019-03-20T21:51:58.772Z,18.40
2019-03-20T21:54:58.639Z,18.75
2019-03-20T21:57:38.725Z,17.15
2019-03-20T22:00:29.081Z,19.50
2019-03-20T22:02:59.891Z,17.52
2019-03-20T22:05:48.452Z,17.60
2019-03-20T22:08:19.326Z,14.90
2019-03-20T22:11:20.622Z,16.42
2019-03-20T22:14:05.359Z,18.73
2019-03-20T22:16:59.229Z,16.75
2019-03-20T22:19:42.262Z,19.23
2019-03-20T22:22:25.562Z,19.48
2019-03-20T22:25:11.677Z,17.57
2019-03-20T22:28:04.124Z,18.05
2019-03-20T22:30:35.077Z,17.52
2019-03-20T22:33:18.297Z,17.48
2019-03-20T22:35:49.776Z,17.60
2019-03-20T22:38:26.537Z,18.60
2019-03-20T22:41:33.894Z,20.80
2019-03-20T22:44:04.731Z,19.30
2019-03-20T22:46:56.955Z,19.57
2019-03-20T22:49:35.635Z,20.88
2019-03-20T22:52:13.435Z,19.07
2019-03-20T22:54:56.542Z,21.97
2019-03-20T22:57:36.620Z,19.73
2019-03-20T23:00:10.810Z,20.17
2019-03-20T23:02:52.147Z,22.50
2019-03-20T23:05:23.188Z,19.85
2019-03-20T23:07:54.149Z,21.73
2019-03-20T23:10:25.118Z,18.55
2019-03-20T23:12:56.079Z,25.02
2019-03-20T23:15:27.908Z,18.23
2019-03-20T23:17:58.678Z,20.30
2019-03-20T23:20:29.631Z,18.42
2019-03-20T23:23:00.664Z,22.32
2019-03-20T23:25:31.623Z,20.25
2019-03-20T23:28:02.607Z,20.25
2019-03-20T23:30:34.694Z,20.15
2019-03-20T23:33:05.728Z,19.70
2019-03-20T23:35:36.824Z,20.92
2019-03-20T23:38:07.832Z,20.17
2019-03-20T23:40:38.874Z,23.67
2019-03-20T23:43:12.392Z,19.20
2019-03-20T23:48:41.052Z,25.70
2019-03-20T23:51:18.207Z,20.05
2019-03-20T23:53:51.130Z,21.07
2019-03-20T23:56:22.671Z,22.65
2019-03-20T23:58:53.611Z,20.55
